createdAt,value
2017-11-14T00:00:50.259Z,98.68
2017-11-14T00:01:50.231Z,98.77
2017-11-14T00:02:50.211Z,99.06
2017-11-14T00:03:50.185Z,99.06
2017-11-14T00:04:50.201Z,98.87
2017-11-14T00:05:50.140Z,98.96
2017-11-14T00:06:50.118Z,99.06
2017-11-14T00:07:50.093Z,98.87
2017-11-14T00:08:50.068Z,98.77
2017-11-14T00:09:50.090Z,98.77
2017-11-14T00:10:50.022Z,99.15
2017-11-14T00:11:49.996Z,98.77
2017-11-14T00:12:49.979Z,98.68
2017-11-14T00:13:49.948Z,99.06
2017-11-14T00:14:49.963Z,98.87
2017-11-14T00:15:49.903Z,98.68
2017-11-14T00:16:49.880Z,98.87
2017-11-14T00:17:49.856Z,98.77
2017-11-14T00:18:49.875Z,99.25
2017-11-14T00:19:49.807Z,98.68
2017-11-14T00:20:49.791Z,98.87
2017-11-14T00:21:49.761Z,99.15
2017-11-14T00:22:49.737Z,98.49
2017-11-14T00:23:49.747Z,98.96
2017-11-14T00:24:49.693Z,99.15
2017-11-14T00:25:49.668Z,98.96
2017-11-14T00:26:50.277Z,99.25
2017-11-14T00:27:49.655Z,99.15
2017-11-14T00:28:49.637Z,98.96
2017-11-14T00:29:49.574Z,99.06
2017-11-14T00:30:49.553Z,98.96
2017-11-14T00:31:49.523Z,98.96
2017-11-14T00:32:49.502Z,98.77
2017-11-14T00:33:49.510Z,98.91
2017-11-14T00:34:49.488Z,99.01
2017-11-14T00:35:49.433Z,99.06
2017-11-14T00:36:49.408Z,99.10
2017-11-14T00:37:49.384Z,99.01
2017-11-14T00:38:49.368Z,99.01
2017-11-14T00:39:49.378Z,99.01
2017-11-14T00:40:49.313Z,98.63
2017-11-14T00:41:49.285Z,98.82
2017-11-14T00:42:49.268Z,98.91
2017-11-14T00:43:49.242Z,99.10
2017-11-14T00:44:49.251Z,99.01
2017-11-14T00:45:49.195Z,98.54
2017-11-14T00:46:49.170Z,98.63
2017-11-14T00:47:49.145Z,98.72
2017-11-14T00:48:49.153Z,99.10
2017-11-14T00:49:49.102Z,98.72
2017-11-14T00:50:49.074Z,98.82
2017-11-14T00:51:49.080Z,98.63
2017-11-14T00:52:49.034Z,98.44
2017-11-14T00:53:49.006Z,98.63
2017-11-14T00:54:48.981Z,98.72
2017-11-14T00:55:48.995Z,99.01
2017-11-14T00:56:48.931Z,98.91
2017-11-14T00:57:48.909Z,99.01
2017-11-14T00:58:48.890Z,98.91
2017-11-14T00:59:48.876Z,98.91
2017-11-14T01:00:48.871Z,98.63
2017-11-14T01:01:48.816Z,99.10
2017-11-14T01:02:48.787Z,98.91
2017-11-14T01:03:48.813Z,98.91
2017-11-14T01:04:48.742Z,98.72
2017-11-14T01:05:48.716Z,98.82
2017-11-14T01:06:48.694Z,99.01
2017-11-14T01:07:48.671Z,98.82
2017-11-14T01:08:48.688Z,99.01
2017-11-14T01:09:59.857Z,98.82
2017-11-14T01:10:48.606Z,98.30
2017-11-14T01:11:48.580Z,98.63
2017-11-14T01:12:48.555Z,98.82
2017-11-14T01:13:48.566Z,99.20
2017-11-14T01:14:48.546Z,98.30
2017-11-14T01:15:48.482Z,98.30
2017-11-14T01:16:48.455Z,98.77
2017-11-14T01:17:48.441Z,99.06
2017-11-14T01:18:48.410Z,99.15
2017-11-14T01:19:48.425Z,99.06
2017-11-14T01:20:48.411Z,99.25
2017-11-14T01:21:48.347Z,99.25
2017-11-14T01:22:48.322Z,99.15
2017-11-14T01:23:48.293Z,98.68
2017-11-14T01:24:48.276Z,99.25
2017-11-14T01:25:48.319Z,98.96
2017-11-14T01:26:48.227Z,99.06
2017-11-14T01:27:48.203Z,98.87
2017-11-14T01:28:48.176Z,99.25
2017-11-14T01:29:48.156Z,98.39
2017-11-14T01:30:48.175Z,98.87
2017-11-14T01:31:48.113Z,98.30
2017-11-14T01:32:48.086Z,98.21
2017-11-14T01:33:48.065Z,98.49
2017-11-14T01:34:48.075Z,99.25
2017-11-14T01:35:48.014Z,98.58
2017-11-14T01:36:48.035Z,98.30
2017-11-14T01:37:47.970Z,99.06
2017-11-14T01:38:47.948Z,98.87
2017-11-14T01:39:47.920Z,99.06
2017-11-14T01:40:47.901Z,98.96
2017-11-14T01:41:47.915Z,98.87
2017-11-14T01:42:47.849Z,98.21
2017-11-14T01:43:47.827Z,98.02
2017-11-14T01:44:47.801Z,98.30
2017-11-14T01:45:47.780Z,98.54
2017-11-14T01:46:47.803Z,98.39
2017-11-14T01:47:47.733Z,98.02
2017-11-14T01:48:47.709Z,98.35
2017-11-14T01:49:47.694Z,98.21
2017-11-14T01:50:47.661Z,98.35
2017-11-14T01:51:48.053Z,98.63
2017-11-14T01:52:47.649Z,98.25
2017-11-14T01:53:47.592Z,98.06
2017-11-14T01:54:47.599Z,98.44
2017-11-14T01:55:47.543Z,98.06
2017-11-14T01:56:47.546Z,98.72
2017-11-14T01:57:47.544Z,98.44
2017-11-14T01:58:47.471Z,98.54
2017-11-14T01:59:47.456Z,98.06
2017-11-14T02:00:57.394Z,98.44
2017-11-14T02:01:47.406Z,98.25
2017-11-14T02:02:47.412Z,98.06
2017-11-14T02:03:47.395Z,98.63
2017-11-14T02:04:47.375Z,99.10
2017-11-14T02:05:47.309Z,98.35
2017-11-14T02:06:47.282Z,98.35
2017-11-14T02:07:47.269Z,98.25
2017-11-14T02:08:47.238Z,99.01
2017-11-14T02:09:47.253Z,98.82
2017-11-14T02:10:47.196Z,98.44
2017-11-14T02:11:47.165Z,98.63
2017-11-14T02:12:47.146Z,98.82
2017-11-14T02:13:47.120Z,98.63
2017-11-14T02:14:47.152Z,98.72
2017-11-14T02:15:47.070Z,99.01
2017-11-14T02:16:47.046Z,98.82
2017-11-14T02:17:47.023Z,98.72
2017-11-14T02:18:46.998Z,99.01
2017-11-14T02:19:47.031Z,98.91
2017-11-14T02:20:46.952Z,98.82
2017-11-14T02:21:46.936Z,99.01
2017-11-14T02:22:46.914Z,99.01
2017-11-14T02:23:46.882Z,99.10
2017-11-14T02:24:46.890Z,99.01
2017-11-14T02:25:46.866Z,98.44
2017-11-14T02:26:47.819Z,99.10
2017-11-14T02:27:46.784Z,98.91
2017-11-14T02:28:46.762Z,98.82
2017-11-14T02:29:46.740Z,98.91
2017-11-14T02:30:46.756Z,98.72
2017-11-14T02:31:46.701Z,98.54
2017-11-14T02:32:46.672Z,98.72
2017-11-14T02:33:46.643Z,98.91
2017-11-14T02:34:46.619Z,98.72
2017-11-14T02:35:46.639Z,98.82
2017-11-14T02:36:46.571Z,98.72
2017-11-14T02:37:46.555Z,98.91
2017-11-14T02:38:46.552Z,98.82
2017-11-14T02:39:46.534Z,98.72
2017-11-14T02:40:46.520Z,98.91
2017-11-14T02:41:46.453Z,98.91
2017-11-14T02:42:46.432Z,98.72
2017-11-14T02:43:46.406Z,98.72
2017-11-14T02:44:46.381Z,98.72
2017-11-14T02:45:46.401Z,98.63
2017-11-14T02:46:46.338Z,98.72
2017-11-14T02:47:46.315Z,98.72
2017-11-14T02:48:46.283Z,98.72
2017-11-14T02:49:46.266Z,98.54
2017-11-14T02:50:46.284Z,98.91
2017-11-14T02:51:56.437Z,98.63
2017-11-14T02:52:46.194Z,98.63
2017-11-14T02:53:46.170Z,98.72
2017-11-14T02:54:46.145Z,98.72
2017-11-14T02:55:46.163Z,98.72
2017-11-14T02:56:46.100Z,98.72
2017-11-14T02:57:46.070Z,99.01
2017-11-14T02:58:46.070Z,99.01
2017-11-14T02:59:46.026Z,99.10
2017-11-14T03:00:46.043Z,98.91
2017-11-14T03:01:45.977Z,99.01
2017-11-14T03:02:45.954Z,99.10
2017-11-14T03:03:45.930Z,98.82
2017-11-14T03:04:45.907Z,98.72
2017-11-14T03:05:45.929Z,98.82
2017-11-14T03:06:45.863Z,99.10
2017-11-14T03:07:45.833Z,99.01
2017-11-14T03:08:45.807Z,99.01
2017-11-14T03:09:45.795Z,99.01
2017-11-14T03:10:45.796Z,98.72
2017-11-14T03:11:45.740Z,98.25
2017-11-14T03:12:45.755Z,98.35
2017-11-14T03:13:45.734Z,98.25
2017-11-14T03:14:45.670Z,98.72
2017-11-14T03:15:45.646Z,98.25
2017-11-14T03:16:45.620Z,98.63
2017-11-14T03:17:45.597Z,98.82
2017-11-14T03:18:45.609Z,98.25
2017-11-14T03:19:45.585Z,99.01
2017-11-14T03:20:45.531Z,98.54
2017-11-14T03:21:45.501Z,98.54
2017-11-14T03:22:45.481Z,98.35
2017-11-14T03:23:45.453Z,98.82
2017-11-14T03:24:45.479Z,98.72
2017-11-14T03:25:45.411Z,99.01
2017-11-14T03:26:45.387Z,99.01
2017-11-14T03:27:45.366Z,98.63
2017-11-14T03:28:45.336Z,97.97
2017-11-14T03:29:45.355Z,98.25
2017-11-14T03:30:45.293Z,98.63
2017-11-14T03:31:45.324Z,98.06
2017-11-14T03:32:45.252Z,98.44
2017-11-14T03:33:45.217Z,98.54
2017-11-14T03:34:45.198Z,98.54
2017-11-14T03:35:45.170Z,98.44
2017-11-14T03:36:45.186Z,98.72
2017-11-14T03:37:45.122Z,99.01
2017-11-14T03:38:45.107Z,98.25
2017-11-14T03:39:45.085Z,98.25
2017-11-14T03:40:45.058Z,98.63
2017-11-14T03:41:45.075Z,99.10
2017-11-14T03:42:54.966Z,98.63
2017-11-14T03:43:44.983Z,98.35
2017-11-14T03:44:44.959Z,98.82
2017-11-14T03:45:44.944Z,98.63
2017-11-14T03:46:44.959Z,99.10
2017-11-14T03:47:44.891Z,98.72
2017-11-14T03:48:44.867Z,98.35
2017-11-14T03:49:44.840Z,98.54
2017-11-14T03:50:44.819Z,98.44
2017-11-14T03:51:44.834Z,98.63
2017-11-14T03:52:44.773Z,98.44
2017-11-14T03:53:44.747Z,98.44
2017-11-14T03:54:44.728Z,98.72
2017-11-14T03:55:44.701Z,98.82
2017-11-14T03:56:44.726Z,99.01
2017-11-14T03:57:44.653Z,98.96
2017-11-14T03:58:44.632Z,99.25
2017-11-14T03:59:44.609Z,98.72
2017-11-14T04:00:44.582Z,98.91
2017-11-14T04:01:44.605Z,98.82
2017-11-14T04:02:44.536Z,98.25
2017-11-14T04:03:44.513Z,98.72
2017-11-14T04:04:44.489Z,98.72
2017-11-14T04:05:44.497Z,98.72
2017-11-14T04:06:44.441Z,98.91
2017-11-14T04:07:44.414Z,99.20
2017-11-14T04:08:44.399Z,99.01
2017-11-14T04:09:44.374Z,98.25
2017-11-14T04:10:44.389Z,98.63
2017-11-14T04:11:44.320Z,98.91
2017-11-14T04:12:44.302Z,98.35
2017-11-14T04:13:44.274Z,99.01
2017-11-14T04:14:44.251Z,98.72
2017-11-14T04:15:44.262Z,98.72
2017-11-14T04:16:44.205Z,99.01
2017-11-14T04:17:44.312Z,98.06
2017-11-14T04:18:44.159Z,99.01
2017-11-14T04:19:44.131Z,98.91
2017-11-14T04:20:44.109Z,98.72
2017-11-14T04:21:44.088Z,98.91
2017-11-14T04:22:44.095Z,99.20
2017-11-14T04:23:44.082Z,99.20
2017-11-14T04:24:44.016Z,99.01
2017-11-14T04:25:43.990Z,98.72
2017-11-14T04:26:43.971Z,99.01
2017-11-14T04:27:43.942Z,99.01
2017-11-14T04:28:43.976Z,98.91
2017-11-14T04:29:43.896Z,99.01
2017-11-14T04:30:43.875Z,99.01
2017-11-14T04:31:43.847Z,98.82
2017-11-14T04:32:43.828Z,98.82
2017-11-14T04:33:54.559Z,98.82
2017-11-14T04:34:43.777Z,99.10
2017-11-14T04:35:43.753Z,98.63
2017-11-14T04:36:43.728Z,98.91
2017-11-14T04:37:43.711Z,98.91
2017-11-14T04:38:43.681Z,98.72
2017-11-14T04:39:43.693Z,99.01
2017-11-14T04:40:43.636Z,99.01
2017-11-14T04:41:43.645Z,98.82
2017-11-14T04:42:43.589Z,98.72
2017-11-14T04:43:43.561Z,98.63
2017-11-14T04:44:43.579Z,98.82
2017-11-14T04:45:43.514Z,98.91
2017-11-14T04:46:43.499Z,98.77
2017-11-14T04:47:43.475Z,98.91
2017-11-14T04:48:43.494Z,98.82
2017-11-14T04:49:43.422Z,98.63
2017-11-14T04:50:43.422Z,99.01
2017-11-14T04:51:43.370Z,98.86
2017-11-14T04:52:43.348Z,99.20
2017-11-14T04:53:43.357Z,98.82
2017-11-14T04:54:43.336Z,99.39
2017-11-14T04:55:43.274Z,99.33
2017-11-14T04:56:43.251Z,99.20
2017-11-14T04:57:43.266Z,99.05
2017-11-14T04:58:43.204Z,99.24
2017-11-14T04:59:43.177Z,98.91
2017-11-14T05:00:43.167Z,99.20
2017-11-14T05:01:43.145Z,99.24
2017-11-14T05:02:43.145Z,99.20
2017-11-14T05:03:43.116Z,99.20
2017-11-14T05:04:43.064Z,99.15
2017-11-14T05:05:43.069Z,98.91
2017-11-14T05:06:43.008Z,99.20
2017-11-14T05:07:42.983Z,99.10
2017-11-14T05:08:42.998Z,99.24
2017-11-14T05:09:42.938Z,99.20
2017-11-14T05:10:42.916Z,99.10
2017-11-14T05:11:42.930Z,99.05
2017-11-14T05:12:52.531Z,99.10
2017-11-14T05:13:42.841Z,99.05
2017-11-14T05:14:42.818Z,99.05
2017-11-14T05:15:42.833Z,99.15
2017-11-14T05:16:42.772Z,99.05
2017-11-14T05:17:42.741Z,99.05
2017-11-14T05:18:42.719Z,99.15
2017-11-14T05:19:42.694Z,99.33
2017-11-14T05:20:42.716Z,99.05
2017-11-14T05:21:42.648Z,99.24
2017-11-14T05:22:42.620Z,99.24
2017-11-14T05:23:42.611Z,99.24
2017-11-14T05:24:42.594Z,99.24
2017-11-14T05:25:42.595Z,99.05
2017-11-14T05:26:42.525Z,99.05
2017-11-14T05:27:42.501Z,98.96
2017-11-14T05:28:42.483Z,99.15
2017-11-14T05:29:42.455Z,98.77
2017-11-14T05:30:42.465Z,98.77
2017-11-14T05:31:42.465Z,99.52
2017-11-14T05:32:42.383Z,99.71
2017-11-14T05:33:43.024Z,99.62
2017-11-14T05:34:42.342Z,99.24
2017-11-14T05:35:42.314Z,99.71
2017-11-14T05:36:42.323Z,99.62
2017-11-14T05:37:42.295Z,99.43
2017-11-14T05:38:42.237Z,99.52
2017-11-14T05:39:42.213Z,99.81
2017-11-14T05:40:42.190Z,99.99
2017-11-14T05:41:42.202Z,99.15
2017-11-14T05:42:42.143Z,99.15
2017-11-14T05:43:42.117Z,99.71
2017-11-14T05:44:42.098Z,99.99
2017-11-14T05:45:42.116Z,99.52
2017-11-14T05:46:42.056Z,99.71
2017-11-14T05:47:42.026Z,99.71
2017-11-14T05:48:42.033Z,99.71
2017-11-14T05:49:41.970Z,99.71
2017-11-14T05:50:41.949Z,99.71
2017-11-14T05:51:41.924Z,99.62
2017-11-14T05:52:41.942Z,99.71
2017-11-14T05:53:41.873Z,99.99
2017-11-14T05:54:41.846Z,99.99
2017-11-14T05:55:41.826Z,99.99
2017-11-14T05:56:41.799Z,99.99
2017-11-14T05:57:41.815Z,99.62
2017-11-14T05:58:41.754Z,99.99
2017-11-14T05:59:41.726Z,99.90
2017-11-14T06:00:41.737Z,99.71
2017-11-14T06:01:41.677Z,99.62
2017-11-14T06:02:41.654Z,99.81
2017-11-14T06:03:50.126Z,99.90
2017-11-14T06:04:41.613Z,99.71
2017-11-14T06:05:41.587Z,99.71
2017-11-14T06:06:41.561Z,99.90
2017-11-14T06:07:41.532Z,99.90
2017-11-14T06:08:41.508Z,99.81
2017-11-14T06:09:41.538Z,99.90
2017-11-14T06:10:41.466Z,99.81
2017-11-14T06:11:41.441Z,99.99
2017-11-14T06:12:41.406Z,99.71
2017-11-14T06:13:41.386Z,99.99
2017-11-14T06:14:41.400Z,99.62
2017-11-14T06:15:41.342Z,99.99
2017-11-14T06:16:41.314Z,99.99
2017-11-14T06:17:41.287Z,99.99
2017-11-14T06:18:41.262Z,99.99
2017-11-14T06:19:41.274Z,99.90
2017-11-14T06:20:41.249Z,99.99
2017-11-14T06:21:41.188Z,99.77
2017-11-14T06:22:41.165Z,99.99
2017-11-14T06:23:41.148Z,99.52
2017-11-14T06:24:41.114Z,99.77
2017-11-14T06:25:41.218Z,99.99
2017-11-14T06:26:41.143Z,99.77
2017-11-14T06:27:41.044Z,99.77
2017-11-14T06:28:41.033Z,99.99
2017-11-14T06:29:41.017Z,99.96
2017-11-14T06:30:41.018Z,99.67
2017-11-14T06:31:40.952Z,99.48
2017-11-14T06:32:40.925Z,99.86
2017-11-14T06:33:40.899Z,99.77
2017-11-14T06:34:40.887Z,99.86
2017-11-14T06:35:40.884Z,99.58
2017-11-14T06:36:40.823Z,99.77
2017-11-14T06:37:40.811Z,99.77
2017-11-14T06:38:40.835Z,99.96
2017-11-14T06:39:40.767Z,99.96
2017-11-14T06:40:40.733Z,99.77
2017-11-14T06:41:40.708Z,99.67
2017-11-14T06:42:40.689Z,99.96
2017-11-14T06:43:41.445Z,99.58
2017-11-14T06:44:40.643Z,99.96
2017-11-14T06:45:40.618Z,99.10
2017-11-14T06:46:40.586Z,99.29
2017-11-14T06:47:40.563Z,99.77
2017-11-14T06:48:40.571Z,99.99
2017-11-14T06:49:40.514Z,99.96
2017-11-14T06:50:40.489Z,99.77
2017-11-14T06:51:40.504Z,99.20
2017-11-14T06:52:40.443Z,99.77
2017-11-14T06:53:40.421Z,98.91
2017-11-14T06:54:40.397Z,99.86
2017-11-14T06:55:40.368Z,99.96
2017-11-14T06:56:40.386Z,99.15
2017-11-14T06:57:40.326Z,99.77
2017-11-14T06:58:40.314Z,99.96
2017-11-14T06:59:41.183Z,99.86
2017-11-14T07:00:40.299Z,99.29
2017-11-14T07:01:40.283Z,99.06
2017-11-14T07:02:40.210Z,99.99
2017-11-14T07:03:40.423Z,99.99
2017-11-14T07:04:40.323Z,99.91
2017-11-14T07:05:40.146Z,99.99
2017-11-14T07:06:40.154Z,99.99
2017-11-14T07:07:40.087Z,99.82
2017-11-14T07:08:40.063Z,99.72
2017-11-14T07:09:40.035Z,99.99
2017-11-14T07:10:40.016Z,99.91
2017-11-14T07:11:40.026Z,99.72
2017-11-14T07:12:39.972Z,99.99
2017-11-14T07:13:39.961Z,99.99
2017-11-14T07:14:39.963Z,99.82
2017-11-14T07:15:39.916Z,99.15
2017-11-14T07:16:39.872Z,99.63
2017-11-14T07:17:39.853Z,99.15
2017-11-14T07:18:39.831Z,99.91
2017-11-14T07:19:39.855Z,99.34
2017-11-14T07:20:39.778Z,99.82
2017-11-14T07:21:39.754Z,99.82
2017-11-14T07:22:39.739Z,99.53
2017-11-14T07:23:39.711Z,99.99
2017-11-14T07:24:39.732Z,99.99
2017-11-14T07:25:39.682Z,99.99
2017-11-14T07:26:39.638Z,99.82
2017-11-14T07:27:39.655Z,99.99
2017-11-14T07:28:39.626Z,99.63
2017-11-14T07:29:39.566Z,99.99
2017-11-14T07:30:39.541Z,99.91
2017-11-14T07:31:39.519Z,99.99
2017-11-14T07:32:39.530Z,99.82
2017-11-14T07:33:39.472Z,99.99
2017-11-14T07:34:39.457Z,99.99
2017-11-14T07:35:39.422Z,99.99
2017-11-14T07:36:39.404Z,99.99
2017-11-14T07:37:39.436Z,99.96
2017-11-14T07:38:39.391Z,99.99
2017-11-14T07:39:39.336Z,99.99
2017-11-14T07:40:39.310Z,99.96
2017-11-14T07:41:39.295Z,99.99
2017-11-14T07:42:39.300Z,99.99
2017-11-14T07:43:39.243Z,99.99
2017-11-14T07:44:39.215Z,99.99
2017-11-14T07:45:39.191Z,99.99
2017-11-14T07:46:39.169Z,99.99
2017-11-14T07:47:39.186Z,99.96
2017-11-14T07:48:39.125Z,99.99
2017-11-14T07:49:39.108Z,99.99
2017-11-14T07:50:39.076Z,99.99
2017-11-14T07:51:39.060Z,99.99
2017-11-14T07:52:39.072Z,99.49
2017-11-14T07:53:39.014Z,99.99
2017-11-14T07:54:38.984Z,99.99
2017-11-14T07:55:38.961Z,99.68
2017-11-14T07:56:38.956Z,99.99
2017-11-14T07:57:38.953Z,99.99
2017-11-14T07:58:38.897Z,99.96
2017-11-14T07:59:38.911Z,99.99
2017-11-14T08:00:38.853Z,99.99
2017-11-14T08:01:38.824Z,99.99
2017-11-14T08:02:38.802Z,99.99
2017-11-14T08:03:38.776Z,99.99
2017-11-14T08:04:38.885Z,99.99
2017-11-14T08:05:39.689Z,99.99
2017-11-14T08:06:38.780Z,99.99
2017-11-14T08:07:39.643Z,99.99
2017-11-14T08:08:38.682Z,99.99
2017-11-14T08:09:39.647Z,99.99
2017-11-14T08:10:38.645Z,99.99
2017-11-14T08:11:38.599Z,99.99
2017-11-14T08:12:38.584Z,99.99
2017-11-14T08:13:38.551Z,99.99
2017-11-14T08:14:38.572Z,99.99
2017-11-14T08:15:38.536Z,99.99
2017-11-14T08:16:38.536Z,99.99
2017-11-14T08:17:38.531Z,99.99
2017-11-14T08:18:38.443Z,99.99
2017-11-14T08:19:38.488Z,99.99
2017-11-14T08:20:38.397Z,99.99
2017-11-14T08:21:38.424Z,99.99
2017-11-14T08:22:38.371Z,99.99
2017-11-14T08:23:38.345Z,99.99
2017-11-14T08:24:38.377Z,99.99
2017-11-14T19:27:30.446Z,96.69
2017-11-14T19:28:30.235Z,96.50
2017-11-14T19:29:30.253Z,96.41
2017-11-14T19:30:30.208Z,96.89
2017-11-14T19:31:30.900Z,96.60
2017-11-14T19:32:30.197Z,96.31
2017-11-14T19:33:30.161Z,96.31
2017-11-14T19:34:30.184Z,96.50
2017-11-14T19:35:30.093Z,96.41
2017-11-14T19:36:30.098Z,96.12
2017-11-14T19:37:30.064Z,96.31
2017-11-14T19:38:32.901Z,96.31
2017-11-14T19:39:30.021Z,96.60
2017-11-14T19:40:30.085Z,96.41
2017-11-14T19:41:30.176Z,96.31
2017-11-14T19:42:29.972Z,96.60
2017-11-14T19:43:30.041Z,96.31
2017-11-14T19:44:29.945Z,96.50
2017-11-14T19:45:30.403Z,96.69
2017-11-14T19:46:29.918Z,96.31
2017-11-14T19:47:29.855Z,96.60
2017-11-14T19:48:30.403Z,96.60
2017-11-14T19:49:29.818Z,96.31
2017-11-14T19:50:29.831Z,96.41
2017-11-14T19:51:29.834Z,96.31
2017-11-14T19:52:29.735Z,96.22
2017-11-14T19:53:29.728Z,96.50
2017-11-14T19:54:29.716Z,96.69
2017-11-14T19:55:29.820Z,96.31
2017-11-14T19:56:29.696Z,96.31
2017-11-14T19:57:29.633Z,96.31
2017-11-14T19:58:29.972Z,96.22
2017-11-14T19:59:29.801Z,96.31
2017-11-14T20:00:30.048Z,96.22
2017-11-14T20:01:29.778Z,96.60
2017-11-14T20:02:29.536Z,96.22
2017-11-14T20:03:29.586Z,96.22
2017-11-14T20:04:29.488Z,96.22
2017-11-14T20:05:29.490Z,96.12
2017-11-14T20:06:29.527Z,96.12
2017-11-14T20:07:29.458Z,96.22
2017-11-14T20:08:29.908Z,96.50
2017-11-14T20:09:29.379Z,96.12
2017-11-14T20:10:29.462Z,96.41
2017-11-14T20:11:29.377Z,96.50
2017-11-14T20:12:29.318Z,96.31
2017-11-14T20:13:29.420Z,96.50
2017-11-14T20:14:29.280Z,96.50
2017-11-14T20:15:29.260Z,96.22
2017-11-14T20:16:29.292Z,96.12
2017-11-14T20:17:29.266Z,96.22
2017-11-14T20:18:29.377Z,96.22
2017-11-14T20:19:29.223Z,96.31
2017-11-14T20:20:29.908Z,96.12
2017-11-14T20:21:29.190Z,96.31
2017-11-14T20:22:29.189Z,96.31
2017-11-14T20:23:29.096Z,96.31
2017-11-14T20:24:29.251Z,96.50
2017-11-14T20:25:29.180Z,96.31
2017-11-14T20:26:29.907Z,96.22
2017-11-14T20:27:29.125Z,96.31
2017-11-14T20:28:29.910Z,96.41
2017-11-14T20:29:28.980Z,96.60
2017-11-14T20:30:29.063Z,96.60
2017-11-14T20:31:29.165Z,96.60
2017-11-14T20:32:29.911Z,96.31
2017-11-14T20:33:29.510Z,96.60
2017-11-14T20:34:29.649Z,96.60
2017-11-14T20:35:28.843Z,96.31
2017-11-14T20:36:29.072Z,95.84
2017-11-14T20:37:29.002Z,95.56
2017-11-14T20:38:28.846Z,95.56
2017-11-14T20:39:29.095Z,96.03
2017-11-14T20:40:28.815Z,96.60
2017-11-14T20:41:28.805Z,95.56
2017-11-14T20:42:28.713Z,96.50
2017-11-14T20:43:28.697Z,96.31
2017-11-14T20:44:28.903Z,95.75
2017-11-14T20:45:28.711Z,95.56
2017-11-14T20:46:28.749Z,95.94
2017-11-14T20:47:28.597Z,95.75
2017-11-14T20:48:28.810Z,95.56
2017-11-14T20:49:29.481Z,95.94
2017-11-14T20:50:28.567Z,95.94
2017-11-14T20:51:28.823Z,95.94
2017-11-14T20:52:28.523Z,95.65
2017-11-14T20:53:28.482Z,96.12
2017-11-14T20:54:29.411Z,96.12
2017-11-14T20:55:28.913Z,95.84
2017-11-14T20:56:29.412Z,95.84
2017-11-14T20:57:29.912Z,95.56
2017-11-14T20:58:28.375Z,95.84
2017-11-14T20:59:28.484Z,95.56
2017-11-14T21:00:28.482Z,95.56
2017-11-14T21:01:28.372Z,95.75
2017-11-14T21:02:28.347Z,95.75
2017-11-14T21:03:28.286Z,95.84
2017-11-14T21:04:28.299Z,95.84
2017-11-14T21:05:28.920Z,95.75
2017-11-14T21:06:28.345Z,95.84
2017-11-14T21:07:28.211Z,95.75
2017-11-14T21:08:28.166Z,96.03
2017-11-14T21:09:28.292Z,96.03
2017-11-14T21:10:28.169Z,95.94
2017-11-14T21:11:28.173Z,95.27
2017-11-14T21:12:28.095Z,95.56
2017-11-14T21:13:28.914Z,95.94
2017-11-14T21:14:28.916Z,95.46
2017-11-14T21:15:28.035Z,95.17
2017-11-14T21:16:29.028Z,95.75
2017-11-14T21:17:27.980Z,95.75
2017-11-14T21:18:27.952Z,95.75
2017-11-14T21:19:27.966Z,95.75
2017-11-14T21:20:27.953Z,96.03
2017-11-14T21:21:27.946Z,96.03
2017-11-14T21:22:27.868Z,95.84
2017-11-14T21:23:28.050Z,95.84
2017-11-14T21:24:28.024Z,95.36
2017-11-14T21:25:27.909Z,95.84
2017-11-14T21:26:28.073Z,95.94
2017-11-14T21:27:27.799Z,95.94
2017-11-14T21:28:27.782Z,96.03
2017-11-14T21:29:27.771Z,95.75
2017-11-14T21:30:27.738Z,95.27
2017-11-14T21:56:23.461Z,95.17
2017-11-14T21:57:23.393Z,95.17
2017-11-14T21:58:23.377Z,95.27
2017-11-14T21:59:23.351Z,95.36
2017-11-14T22:00:23.364Z,95.17
2017-11-14T22:01:23.333Z,95.27
2017-11-14T22:02:23.430Z,95.17
2017-11-14T22:03:23.266Z,95.36
2017-11-14T22:04:23.321Z,95.17
2017-11-14T22:05:23.417Z,95.17
2017-11-14T22:06:23.205Z,95.17
2017-11-14T22:07:23.192Z,95.56
2017-11-14T22:08:23.231Z,95.46
2017-11-14T22:09:23.280Z,95.56
2017-11-14T22:10:23.337Z,95.17
2017-11-14T22:11:23.202Z,95.36
2017-11-14T22:12:23.185Z,95.46
2017-11-14T22:13:23.136Z,95.46
2017-11-14T22:14:23.037Z,95.17
2017-11-14T22:15:23.199Z,95.46
2017-11-14T22:16:22.993Z,95.56
2017-11-14T22:17:22.973Z,95.08
2017-11-14T22:18:22.953Z,95.56
2017-11-14T22:19:22.949Z,95.36
2017-11-14T22:20:22.957Z,95.75
2017-11-14T22:21:22.900Z,95.56
2017-11-14T22:22:22.878Z,95.56
2017-11-14T22:23:22.849Z,95.27
2017-11-14T22:24:22.835Z,95.56
2017-11-14T22:25:22.852Z,95.46
2017-11-14T22:26:23.008Z,94.98
2017-11-14T22:27:22.820Z,95.56
2017-11-14T22:28:22.749Z,95.56
2017-11-14T22:29:22.845Z,95.36
2017-11-14T22:30:22.760Z,95.27
2017-11-14T22:31:22.691Z,95.27
2017-11-14T22:32:22.702Z,95.36
2017-11-14T22:33:22.713Z,95.27
2017-11-14T22:34:22.625Z,95.46
2017-11-14T22:35:22.602Z,95.36
2017-11-14T22:36:22.581Z,95.65
2017-11-14T22:37:22.563Z,95.36
2017-11-14T22:38:22.714Z,95.75
2017-11-14T22:39:22.518Z,95.27
2017-11-14T22:40:22.502Z,95.27
2017-11-14T22:41:22.479Z,95.46
2017-11-14T22:42:22.458Z,95.17
2017-11-14T22:43:22.484Z,95.46
2017-11-14T22:44:22.483Z,95.17
2017-11-14T22:45:22.393Z,95.17
2017-11-14T22:46:22.376Z,95.56
2017-11-14T22:47:22.439Z,95.65
2017-11-14T22:48:22.378Z,95.56
2017-11-14T22:49:22.313Z,95.51
2017-11-14T22:50:22.302Z,95.51
2017-11-14T22:51:22.273Z,95.51
2017-11-14T22:52:22.257Z,95.41
2017-11-14T22:53:22.279Z,95.56
2017-11-14T22:54:22.211Z,95.56
2017-11-14T22:55:22.194Z,95.46
2017-11-14T22:56:22.170Z,95.36
2017-11-14T22:57:22.150Z,95.46
2017-11-14T22:58:22.209Z,95.56
2017-11-14T22:59:22.144Z,95.56
2017-11-14T23:00:22.089Z,95.51
2017-11-14T23:01:22.070Z,95.46
2017-11-14T23:02:22.048Z,95.75
2017-11-14T23:03:22.077Z,95.56
2017-11-14T23:04:22.008Z,95.27
2017-11-14T23:05:21.988Z,95.56
2017-11-14T23:06:21.969Z,95.65
2017-11-14T23:07:21.946Z,95.36
2017-11-14T23:08:21.972Z,95.56
2017-11-14T23:09:21.933Z,95.46
2017-11-14T23:10:21.883Z,95.36
2017-11-14T23:11:21.930Z,95.46
2017-11-14T23:12:21.852Z,95.46
2017-11-14T23:13:21.860Z,95.36
2017-11-14T23:14:21.805Z,95.51
2017-11-14T23:15:21.779Z,95.12
2017-11-14T23:16:21.760Z,95.46
2017-11-14T23:17:21.758Z,95.65
2017-11-14T23:18:21.771Z,95.65
2017-11-14T23:19:21.704Z,95.36
2017-11-14T23:20:21.682Z,95.60
2017-11-14T23:21:21.662Z,95.41
2017-11-14T23:22:21.640Z,95.36
2017-11-14T23:23:21.670Z,95.36
2017-11-14T23:24:21.597Z,95.65
2017-11-14T23:25:21.576Z,95.22
2017-11-14T23:26:21.559Z,95.12
2017-11-14T23:27:21.540Z,95.65
2017-11-14T23:28:21.557Z,95.84
2017-11-14T23:29:21.493Z,95.36
2017-11-14T23:30:21.472Z,95.60
2017-11-14T23:31:21.453Z,95.56
2017-11-14T23:32:21.437Z,95.70
2017-11-14T23:33:21.449Z,95.41
2017-11-14T23:34:21.391Z,95.27
2017-11-14T23:35:21.382Z,95.36
2017-11-14T23:36:21.351Z,95.17
2017-11-14T23:37:21.364Z,95.46
2017-11-14T23:38:21.310Z,95.51
2017-11-14T23:39:21.329Z,95.51
2017-11-14T23:40:21.268Z,95.46
2017-11-14T23:41:21.301Z,95.46
2017-11-14T23:42:21.230Z,95.51
2017-11-14T23:43:21.211Z,95.46
2017-11-14T23:44:21.184Z,94.89
2017-11-14T23:45:21.165Z,94.84
2017-11-14T23:46:21.191Z,95.56
2017-11-14T23:47:21.162Z,95.70
2017-11-14T23:48:21.102Z,95.60
2017-11-14T23:49:21.083Z,95.56
2017-11-14T23:50:21.064Z,95.51
2017-11-14T23:51:21.073Z,95.51
2017-11-14T23:52:21.064Z,95.41
2017-11-14T23:53:21.010Z,95.32
2017-11-14T23:54:21.019Z,95.60
2017-11-14T23:55:20.961Z,95.60
2017-11-14T23:56:20.970Z,95.60
2017-11-14T23:57:20.922Z,95.41
2017-11-14T23:58:20.903Z,95.60
2017-11-14T23:59:20.918Z,95.41
